createdAt,value
2022-09-17T00:01:05.166Z,13.30
2022-09-17T00:03:32.346Z,13.30
2022-09-17T00:06:07.643Z,13.20
2022-09-17T00:08:35.954Z,13.20
2022-09-17T00:11:10.109Z,13.10
2022-09-17T00:13:37.280Z,13.10
2022-09-17T00:16:04.270Z,13.10
2022-09-17T00:18:30.944Z,13.10
2022-09-17T00:20:57.665Z,13.10
2022-09-17T00:23:24.408Z,13.10
2022-09-17T00:25:51.101Z,13.10
2022-09-17T00:28:17.805Z,13.00
2022-09-17T00:30:46.198Z,13.00
2022-09-17T00:33:15.288Z,13.10
2022-09-17T00:35:42.146Z,13.10
2022-09-17T00:38:09.137Z,13.10
2022-09-17T00:40:36.083Z,13.10
2022-09-17T00:43:04.801Z,13.20
2022-09-17T00:45:32.345Z,13.20
2022-09-17T00:48:05.404Z,13.20
2022-09-17T00:50:34.974Z,13.20
2022-09-17T00:53:13.475Z,13.10
2022-09-17T00:55:45.807Z,13.20
2022-09-17T00:58:14.657Z,13.10
2022-09-17T01:00:41.904Z,13.20
2022-09-17T01:03:09.224Z,13.10
2022-09-17T01:05:50.263Z,13.10
2022-09-17T01:08:33.961Z,13.10
2022-09-17T01:11:12.540Z,13.00
2022-09-17T01:13:57.389Z,13.00
2022-09-17T01:16:40.598Z,13.00
2022-09-17T01:19:41.337Z,13.00
2022-09-17T01:22:37.355Z,13.00
2022-09-17T01:25:24.757Z,13.00
2022-09-17T01:28:24.151Z,13.00
2022-09-17T01:31:05.009Z,12.90
2022-09-17T01:33:53.982Z,12.90
2022-09-17T01:36:45.432Z,12.90
2022-09-17T01:39:36.466Z,13.00
2022-09-17T01:42:07.988Z,13.00
2022-09-17T01:44:47.245Z,12.90
2022-09-17T01:47:39.605Z,12.90
2022-09-17T01:50:21.922Z,12.80
2022-09-17T01:52:52.307Z,12.80
2022-09-17T01:55:20.020Z,12.80
2022-09-17T01:58:19.306Z,12.80
2022-09-17T02:00:51.942Z,12.80
2022-09-17T02:03:42.358Z,12.80
2022-09-17T02:06:21.077Z,12.80
2022-09-17T02:09:02.469Z,12.80
2022-09-17T02:11:30.730Z,12.80
2022-09-17T02:14:05.979Z,12.80
2022-09-17T02:16:36.043Z,12.80
2022-09-17T02:19:07.631Z,12.80
2022-09-17T02:21:52.740Z,12.80
2022-09-17T02:24:29.223Z,12.80
2022-09-17T02:27:14.769Z,12.90
2022-09-17T02:29:43.601Z,12.80
2022-09-17T02:32:11.512Z,12.70
2022-09-17T02:34:38.875Z,12.80
2022-09-17T02:37:06.354Z,12.70
2022-09-17T02:39:33.180Z,12.80
2022-09-17T02:42:18.023Z,12.80
2022-09-17T02:45:12.474Z,12.80
2022-09-17T02:48:00.381Z,12.80
2022-09-17T02:50:48.877Z,12.80
2022-09-17T02:53:32.742Z,12.90
2022-09-17T02:56:18.051Z,12.90
2022-09-17T02:59:10.418Z,12.90
2022-09-17T03:01:44.944Z,12.90
2022-09-17T03:04:16.585Z,12.90
2022-09-17T03:06:46.786Z,12.90
2022-09-17T03:09:16.426Z,12.90
2022-09-17T03:11:43.220Z,12.90
2022-09-17T03:14:09.874Z,13.00
2022-09-17T03:16:36.601Z,13.00
2022-09-17T03:19:03.646Z,12.90
2022-09-17T03:21:31.302Z,13.00
2022-09-17T03:24:00.246Z,13.00
2022-09-17T03:26:27.631Z,13.00
2022-09-17T03:28:54.259Z,13.00
2022-09-17T03:31:20.916Z,13.00
2022-09-17T03:33:47.562Z,13.10
2022-09-17T03:36:14.203Z,13.10
2022-09-17T03:38:40.836Z,13.10
2022-09-17T03:41:07.635Z,13.00
2022-09-17T03:43:34.812Z,13.00
2022-09-17T03:46:01.663Z,13.00
2022-09-17T03:48:29.574Z,13.00
2022-09-17T03:50:56.812Z,13.00
2022-09-17T03:53:23.672Z,13.00
2022-09-17T03:55:50.488Z,13.00
2022-09-17T03:58:17.197Z,13.00
2022-09-17T04:00:44.420Z,13.10
2022-09-17T04:03:11.041Z,13.00
2022-09-17T04:05:37.730Z,13.10
2022-09-17T04:08:04.358Z,13.10
2022-09-17T04:10:30.983Z,13.10
2022-09-17T04:12:57.645Z,13.10
2022-09-17T04:15:24.277Z,13.10
2022-09-17T04:17:50.856Z,13.10
2022-09-17T04:20:17.587Z,13.10
2022-09-17T04:22:44.406Z,13.10
2022-09-17T04:25:11.555Z,13.10
2022-09-17T04:27:38.353Z,13.00
2022-09-17T04:30:05.460Z,13.00
2022-09-17T04:32:32.213Z,13.00
2022-09-17T04:34:58.894Z,13.00
2022-09-17T04:37:25.850Z,13.00
2022-09-17T04:39:52.703Z,13.00
2022-09-17T04:42:19.573Z,13.00
2022-09-17T04:44:46.169Z,13.00
2022-09-17T04:47:12.874Z,12.90
2022-09-17T04:49:39.481Z,12.90
2022-09-17T04:52:06.238Z,13.00
2022-09-17T04:54:32.892Z,12.90
2022-09-17T04:57:00.516Z,12.90
2022-09-17T04:59:27.209Z,12.90
2022-09-17T05:01:53.926Z,12.80
2022-09-17T05:04:20.797Z,12.80
2022-09-17T05:06:47.598Z,12.70
2022-09-17T05:09:14.736Z,12.60
2022-09-17T05:11:41.644Z,12.50
2022-09-17T05:14:08.472Z,12.50
2022-09-17T05:16:35.230Z,12.40
2022-09-17T05:19:02.137Z,12.40
2022-09-17T05:21:29.121Z,12.50
2022-09-17T05:23:55.760Z,12.50
2022-09-17T05:26:22.395Z,12.50
2022-09-17T05:28:49.038Z,12.60
2022-09-17T05:31:15.765Z,12.60
2022-09-17T05:33:42.509Z,12.60
2022-09-17T05:36:09.365Z,12.60
2022-09-17T05:38:36.007Z,12.60
2022-09-17T05:41:06.745Z,12.60
2022-09-17T05:43:33.802Z,12.60
2022-09-17T05:46:04.999Z,12.60
2022-09-17T05:48:31.742Z,12.60
2022-09-17T05:50:58.336Z,12.60
2022-09-17T05:53:24.983Z,12.60
2022-09-17T05:55:51.592Z,12.60
2022-09-17T05:58:19.392Z,12.60
2022-09-17T06:00:48.910Z,12.60
2022-09-17T06:03:17.667Z,12.60
2022-09-17T06:05:53.988Z,12.70
2022-09-17T06:08:20.667Z,12.70
2022-09-17T06:10:47.298Z,12.70
2022-09-17T06:13:13.950Z,12.70
2022-09-17T06:15:40.587Z,12.70
2022-09-17T06:18:07.299Z,12.70
2022-09-17T06:20:33.969Z,12.80
2022-09-17T06:23:00.536Z,12.80
2022-09-17T06:25:27.164Z,12.80
2022-09-17T06:27:53.799Z,12.90
2022-09-17T06:30:20.413Z,12.90
2022-09-17T06:32:46.986Z,12.90
2022-09-17T06:35:13.639Z,13.00
2022-09-17T06:37:40.836Z,13.00
2022-09-17T06:40:08.871Z,13.00
2022-09-17T06:42:35.573Z,13.00
2022-09-17T06:45:07.988Z,13.00
2022-09-17T06:47:36.119Z,13.00
2022-09-17T06:50:02.984Z,13.00
2022-09-17T06:52:29.620Z,13.10
2022-09-17T06:54:56.564Z,13.10
2022-09-17T06:57:23.308Z,13.10
2022-09-17T06:59:50.208Z,13.20
2022-09-17T07:02:16.871Z,13.30
2022-09-17T07:04:43.529Z,13.30
2022-09-17T07:07:10.436Z,13.40
2022-09-17T07:09:37.037Z,13.50
2022-09-17T07:12:07.948Z,13.50
2022-09-17T07:14:34.555Z,13.60
2022-09-17T07:17:01.190Z,13.70
2022-09-17T07:19:27.832Z,13.70
2022-09-17T07:21:54.493Z,13.80
2022-09-17T07:24:21.137Z,13.80
2022-09-17T07:26:47.756Z,13.80
2022-09-17T07:29:14.400Z,13.90
2022-09-17T07:31:41.044Z,13.90
2022-09-17T07:34:07.788Z,13.90
2022-09-17T07:36:34.407Z,13.90
2022-09-17T07:39:01.077Z,13.90
2022-09-17T07:41:27.672Z,13.80
2022-09-17T07:43:57.304Z,13.90
2022-09-17T07:46:24.106Z,13.90
2022-09-17T07:48:51.785Z,13.80
2022-09-17T07:51:23.629Z,13.80
2022-09-17T07:53:58.997Z,13.70
2022-09-17T07:56:26.947Z,13.60
2022-09-17T07:58:54.932Z,13.60
2022-09-17T08:01:22.712Z,13.60
2022-09-17T08:03:54.389Z,13.60
2022-09-17T08:06:25.946Z,13.60
2022-09-17T08:08:52.638Z,13.60
2022-09-17T08:11:44.517Z,13.60
2022-09-17T08:14:14.040Z,13.70
2022-09-17T08:16:41.169Z,13.80
2022-09-17T08:19:10.576Z,13.90
2022-09-17T08:21:37.413Z,14.00
2022-09-17T08:24:04.586Z,14.10
2022-09-17T08:26:31.258Z,14.20
2022-09-17T08:28:58.653Z,14.30
2022-09-17T08:31:30.298Z,14.40
2022-09-17T08:33:57.192Z,14.40
2022-09-17T08:36:26.100Z,14.40
2022-09-17T08:38:54.429Z,14.50
2022-09-17T08:41:30.260Z,14.60
2022-09-17T08:44:26.420Z,14.70
2022-09-17T08:47:18.495Z,14.70
2022-09-17T08:49:54.728Z,14.80
2022-09-17T08:52:59.445Z,15.00
2022-09-17T08:55:48.769Z,15.10
2022-09-17T08:58:43.444Z,15.20
2022-09-17T09:01:35.491Z,15.20
2022-09-17T09:04:03.134Z,15.30
2022-09-17T09:06:42.698Z,15.30
2022-09-17T09:09:16.894Z,15.30
2022-09-17T09:11:46.955Z,15.30
2022-09-17T09:14:24.408Z,15.30
2022-09-17T09:16:53.934Z,15.20
2022-09-17T09:19:23.849Z,15.20
2022-09-17T09:22:03.690Z,15.20
2022-09-17T09:25:13.342Z,15.10
2022-09-17T09:28:00.708Z,15.20
2022-09-17T09:30:38.485Z,15.30
2022-09-17T09:33:14.802Z,15.40
2022-09-17T09:35:44.357Z,15.50
2022-09-17T09:38:10.925Z,15.40
2022-09-17T09:40:40.855Z,15.40
2022-09-17T09:44:02.809Z,15.40
2022-09-17T09:46:49.591Z,15.30
2022-09-17T09:49:25.691Z,15.20
2022-09-17T09:52:16.977Z,15.10
2022-09-17T09:55:04.880Z,15.00
2022-09-17T09:57:45.875Z,14.80
2022-09-17T10:00:27.944Z,14.70
2022-09-17T10:03:20.476Z,14.60
2022-09-17T10:05:58.885Z,14.30
2022-09-17T10:08:27.658Z,14.20
2022-09-17T10:11:13.875Z,14.10
2022-09-17T10:13:41.629Z,14.10
2022-09-17T10:16:18.478Z,14.10
2022-09-17T10:18:46.859Z,14.00
2022-09-17T10:21:34.619Z,14.00
2022-09-17T10:24:03.681Z,14.00
2022-09-17T10:26:35.015Z,14.00
2022-09-17T10:29:22.068Z,14.00
2022-09-17T10:31:52.833Z,14.00
2022-09-17T10:34:27.574Z,14.10
2022-09-17T10:36:58.493Z,14.10
2022-09-17T10:39:31.310Z,14.20
2022-09-17T10:41:58.169Z,14.10
2022-09-17T10:44:27.111Z,14.10
2022-09-17T10:46:54.435Z,14.20
2022-09-17T10:49:34.553Z,14.10
2022-09-17T10:52:45.331Z,14.10
2022-09-17T10:55:23.960Z,14.00
2022-09-17T10:58:03.333Z,14.00
2022-09-17T11:00:49.895Z,14.10
2022-09-17T11:03:50.133Z,14.20
2022-09-17T11:06:28.805Z,14.40
2022-09-17T11:09:40.129Z,14.50
2022-09-17T11:12:44.673Z,14.70
2022-09-17T11:15:29.880Z,14.90
2022-09-17T11:18:05.400Z,14.90
2022-09-17T11:20:54.174Z,15.00
2022-09-17T11:23:43.188Z,15.00
2022-09-17T11:26:27.987Z,15.10
2022-09-17T11:29:40.216Z,15.10
2022-09-17T11:32:26.393Z,15.20
2022-09-17T11:35:25.631Z,15.30
2022-09-17T11:38:20.360Z,15.40
2022-09-17T11:41:02.946Z,15.50
2022-09-17T11:43:46.717Z,15.60
2022-09-17T11:46:32.588Z,15.50
2022-09-17T11:49:12.548Z,15.50
2022-09-17T11:52:11.803Z,15.40
2022-09-17T11:54:49.194Z,15.30
2022-09-17T11:57:22.488Z,15.10
2022-09-17T12:00:17.803Z,15.00
2022-09-17T12:03:13.772Z,15.00
2022-09-17T12:05:46.794Z,15.00
2022-09-17T12:08:51.187Z,15.00
2022-09-17T12:11:32.927Z,15.20
2022-09-17T12:14:20.106Z,15.30
2022-09-17T12:16:53.178Z,15.40
2022-09-17T12:19:46.481Z,15.40
2022-09-17T12:22:26.293Z,15.50
2022-09-17T12:24:54.420Z,15.50
2022-09-17T12:28:03.353Z,15.50
2022-09-17T12:30:38.353Z,15.50
2022-09-17T12:33:46.446Z,15.60
2022-09-17T12:36:16.563Z,15.60
2022-09-17T12:39:04.496Z,15.70
2022-09-17T12:41:49.206Z,15.80
2022-09-17T12:44:24.514Z,15.70
2022-09-17T12:47:05.630Z,15.60
2022-09-17T12:50:00.619Z,15.50
2022-09-17T12:52:48.066Z,15.30
2022-09-17T12:55:24.856Z,15.20
2022-09-17T12:58:14.898Z,15.10
2022-09-17T13:01:14.245Z,15.00
2022-09-17T13:03:49.039Z,14.70
2022-09-17T13:06:37.012Z,14.70
2022-09-17T13:09:28.360Z,14.70
2022-09-17T13:12:10.989Z,14.70
2022-09-17T13:14:52.687Z,14.80
2022-09-17T13:18:00.856Z,14.70
2022-09-17T13:20:54.286Z,14.80
2022-09-17T13:23:43.911Z,15.00
2022-09-17T13:26:20.009Z,15.20
2022-09-17T13:28:48.960Z,15.30
2022-09-17T13:31:34.652Z,15.30
2022-09-17T13:34:02.922Z,15.30
2022-09-17T13:36:36.310Z,15.30
2022-09-17T13:39:05.337Z,15.30
2022-09-17T13:41:36.744Z,15.40
2022-09-17T13:44:07.340Z,15.40
2022-09-17T13:46:35.468Z,15.50
2022-09-17T13:49:15.327Z,15.60
2022-09-17T13:51:45.301Z,15.70
2022-09-17T13:54:13.501Z,15.70
2022-09-17T13:56:44.017Z,15.70
2022-09-17T13:59:20.752Z,15.80
2022-09-17T14:01:58.588Z,15.80
2022-09-17T14:04:41.842Z,15.90
2022-09-17T14:07:23.877Z,16.10
2022-09-17T14:09:58.950Z,16.20
2022-09-17T14:12:41.303Z,16.20
2022-09-17T14:15:36.118Z,16.20
2022-09-17T14:18:28.602Z,16.10
2022-09-17T14:21:14.788Z,16.00
2022-09-17T14:23:54.606Z,15.90
2022-09-17T14:27:06.784Z,15.70
2022-09-17T14:30:01.578Z,15.60
2022-09-17T14:33:01.961Z,15.50
2022-09-17T14:35:37.476Z,15.50
2022-09-17T14:38:33.316Z,15.50
2022-09-17T14:41:12.168Z,15.60
2022-09-17T14:43:52.358Z,15.50
2022-09-17T14:46:32.788Z,15.50
2022-09-17T14:49:25.885Z,15.50
2022-09-17T14:52:02.316Z,15.40
2022-09-17T14:54:35.124Z,15.30
2022-09-17T14:57:08.734Z,15.30
2022-09-17T14:59:43.872Z,15.20
2022-09-17T15:02:41.896Z,15.30
2022-09-17T15:05:22.699Z,15.50
2022-09-17T15:07:49.758Z,15.60
2022-09-17T15:10:21.954Z,15.60
2022-09-17T15:12:50.273Z,15.70
2022-09-17T15:15:22.890Z,15.70
2022-09-17T15:17:51.187Z,15.70
2022-09-17T15:20:21.970Z,15.60
2022-09-17T15:23:14.962Z,15.60
2022-09-17T15:25:43.824Z,15.60
2022-09-17T15:28:26.536Z,15.60
2022-09-17T15:30:53.140Z,15.50
2022-09-17T15:33:20.323Z,15.50
2022-09-17T15:36:00.244Z,15.40
2022-09-17T15:38:29.153Z,15.40
2022-09-17T15:41:10.985Z,15.30
2022-09-17T15:43:41.222Z,15.30
2022-09-17T15:46:29.834Z,15.20
2022-09-17T15:48:59.400Z,15.20
2022-09-17T15:51:28.739Z,15.10
2022-09-17T15:54:00.951Z,15.00
2022-09-17T15:56:32.572Z,15.00
2022-09-17T15:59:05.371Z,14.90
2022-09-17T16:01:40.903Z,14.80
2022-09-17T16:04:22.789Z,14.80
2022-09-17T16:06:52.344Z,14.90
2022-09-17T16:09:38.035Z,14.90
2022-09-17T16:12:05.221Z,14.90
2022-09-17T16:14:31.821Z,14.90
2022-09-17T16:16:59.671Z,14.90
2022-09-17T16:19:26.648Z,14.80
2022-09-17T16:21:53.384Z,14.70
2022-09-17T16:24:20.082Z,14.70
2022-09-17T16:26:46.727Z,14.70
2022-09-17T16:29:16.192Z,14.60
2022-09-17T16:31:44.641Z,14.60
2022-09-17T16:34:11.357Z,14.60
2022-09-17T16:36:38.077Z,14.60
2022-09-17T16:39:05.244Z,14.60
2022-09-17T16:43:58.682Z,14.60
2022-09-17T16:46:26.021Z,14.60
2022-09-17T16:48:52.791Z,14.60
2022-09-17T16:51:19.532Z,14.60
2022-09-17T16:53:46.411Z,14.60
2022-09-17T16:56:15.328Z,14.60
2022-09-17T16:58:42.635Z,14.60
2022-09-17T17:01:11.349Z,14.60
2022-09-17T17:03:38.569Z,14.60
2022-09-17T17:06:05.787Z,14.60
2022-09-17T17:08:33.491Z,14.60
2022-09-17T17:11:00.911Z,14.60
2022-09-17T17:13:30.217Z,14.60
2022-09-17T17:15:56.948Z,14.60
2022-09-17T17:18:24.549Z,14.60
2022-09-17T17:20:51.232Z,14.50
2022-09-17T17:23:17.857Z,14.50
2022-09-17T17:25:44.482Z,14.40
2022-09-17T17:28:11.166Z,14.40
2022-09-17T17:30:38.436Z,14.40
2022-09-17T17:33:05.417Z,14.30
2022-09-17T17:35:32.498Z,14.30
2022-09-17T17:37:59.308Z,14.30
2022-09-17T17:40:26.694Z,14.30
2022-09-17T17:42:54.712Z,14.30
2022-09-17T17:45:21.714Z,14.30
2022-09-17T17:47:48.733Z,14.40
2022-09-17T17:50:15.894Z,14.30
2022-09-17T17:52:47.762Z,14.30
2022-09-17T17:55:16.289Z,14.30
2022-09-17T17:57:42.900Z,14.30
2022-09-17T18:00:12.354Z,14.30
2022-09-17T18:02:39.956Z,14.30
2022-09-17T18:05:07.286Z,14.30
2022-09-17T18:07:34.049Z,14.30
2022-09-17T18:10:00.675Z,14.30
2022-09-17T18:12:27.366Z,14.40
2022-09-17T18:14:54.069Z,14.30
2022-09-17T18:17:20.844Z,14.30
2022-09-17T18:19:47.486Z,14.30
2022-09-17T18:22:14.235Z,14.30
2022-09-17T18:24:40.969Z,14.30
2022-09-17T18:27:07.709Z,14.30
2022-09-17T18:29:34.520Z,14.30
2022-09-17T18:32:01.448Z,14.30
2022-09-17T18:34:28.186Z,14.30
2022-09-17T18:36:54.807Z,14.30
2022-09-17T18:42:08.906Z,14.30
2022-09-17T18:44:35.622Z,14.30
2022-09-17T18:47:02.727Z,14.30
2022-09-17T18:49:29.421Z,14.20
2022-09-17T18:52:19.014Z,14.20
2022-09-17T18:54:46.102Z,14.20
2022-09-17T18:57:13.825Z,14.10
2022-09-17T18:59:48.431Z,14.10
2022-09-17T19:02:15.201Z,14.00
2022-09-17T19:04:41.935Z,14.00
2022-09-17T19:07:08.637Z,14.00
2022-09-17T19:09:35.739Z,13.90
2022-09-17T19:12:02.775Z,13.80
2022-09-17T19:14:29.454Z,13.80
2022-09-17T19:16:56.301Z,13.80
2022-09-17T19:19:23.303Z,13.80
2022-09-17T19:21:50.701Z,13.90
2022-09-17T19:24:18.215Z,13.90
2022-09-17T19:26:50.644Z,13.90
2022-09-17T19:29:18.452Z,13.90
2022-09-17T19:31:45.986Z,13.90
2022-09-17T19:34:12.829Z,13.90
2022-09-17T19:36:40.801Z,13.90
2022-09-17T19:39:07.648Z,13.90
2022-09-17T19:41:36.283Z,13.90
2022-09-17T19:44:03.671Z,13.90
2022-09-17T19:46:31.594Z,13.90
2022-09-17T19:48:58.900Z,13.90
2022-09-17T19:51:26.855Z,13.90
2022-09-17T19:53:53.833Z,13.80
2022-09-17T19:56:23.176Z,13.90
2022-09-17T19:58:50.386Z,13.80
2022-09-17T20:01:17.640Z,13.80
2022-09-17T20:03:45.320Z,13.80
2022-09-17T20:06:15.038Z,13.80
2022-09-17T20:08:46.967Z,13.80
2022-09-17T20:11:15.459Z,13.80
2022-09-17T20:13:42.295Z,13.80
2022-09-17T20:16:13.456Z,13.80
2022-09-17T20:18:40.474Z,13.80
2022-09-17T20:21:12.020Z,13.70
2022-09-17T20:23:39.356Z,13.70
2022-09-17T20:26:06.526Z,13.70
2022-09-17T20:28:33.903Z,13.70
2022-09-17T20:31:06.038Z,13.70
2022-09-17T20:33:33.168Z,13.70
2022-09-17T20:36:06.010Z,13.70
2022-09-17T20:39:09.927Z,13.70
2022-09-17T20:41:21.324Z,13.60
2022-09-17T20:43:50.223Z,13.60
2022-09-17T20:46:17.948Z,13.60
2022-09-17T20:48:45.498Z,13.60
2022-09-17T20:51:17.571Z,13.60
2022-09-17T20:53:45.833Z,13.40
2022-09-17T20:56:14.848Z,13.40
2022-09-17T20:58:48.979Z,13.40
2022-09-17T21:01:20.585Z,13.30
2022-09-17T21:03:52.710Z,13.30
2022-09-17T21:06:21.451Z,13.20
2022-09-17T21:08:50.307Z,13.20
2022-09-17T21:11:18.107Z,13.30
2022-09-17T21:13:47.645Z,13.30
2022-09-17T21:16:15.016Z,13.30
2022-09-17T21:18:42.779Z,13.30
2022-09-17T21:21:14.818Z,13.20
2022-09-17T21:23:42.787Z,13.20
2022-09-17T21:26:18.175Z,13.20
2022-09-17T21:28:46.995Z,13.20
2022-09-17T21:31:16.130Z,13.20
2022-09-17T21:33:43.787Z,13.20
2022-09-17T21:36:16.948Z,13.20
2022-09-17T21:38:44.269Z,13.10
2022-09-17T21:41:13.786Z,13.20
2022-09-17T21:43:41.689Z,13.20
2022-09-17T21:46:11.879Z,13.20
2022-09-17T21:48:46.615Z,13.20
2022-09-17T21:51:38.523Z,13.20
2022-09-17T21:54:13.260Z,13.20
2022-09-17T21:56:40.152Z,13.20
2022-09-17T21:59:09.922Z,13.10
2022-09-17T22:01:42.346Z,13.10
2022-09-17T22:04:26.725Z,13.00
2022-09-17T22:06:53.968Z,13.00
2022-09-17T22:09:25.548Z,13.00
2022-09-17T22:11:53.337Z,13.00
2022-09-17T22:14:22.748Z,12.90
2022-09-17T22:16:55.206Z,12.90
2022-09-17T22:19:23.510Z,13.00
2022-09-17T22:21:52.719Z,12.90
2022-09-17T22:24:21.421Z,12.90
2022-09-17T22:26:56.526Z,12.90
2022-09-17T22:29:24.845Z,13.00
2022-09-17T22:31:51.628Z,13.00
2022-09-17T22:34:21.798Z,12.90
2022-09-17T22:36:49.342Z,12.80
2022-09-17T22:39:18.991Z,12.80
2022-09-17T22:41:46.120Z,12.70
2022-09-17T22:44:18.378Z,12.70
2022-09-17T22:46:47.385Z,12.60
2022-09-17T22:49:14.792Z,12.70
2022-09-17T22:51:42.103Z,12.60
2022-09-17T22:54:12.134Z,12.70
2022-09-17T22:56:38.935Z,12.70
2022-09-17T22:59:05.840Z,12.70
2022-09-17T23:01:34.229Z,12.60
2022-09-17T23:04:02.001Z,12.60
2022-09-17T23:06:31.247Z,12.60
2022-09-17T23:08:59.327Z,12.60
2022-09-17T23:11:31.772Z,12.60
2022-09-17T23:14:03.666Z,12.60
2022-09-17T23:16:35.783Z,12.60
2022-09-17T23:19:02.891Z,12.70
2022-09-17T23:21:29.648Z,12.80
2022-09-17T23:23:56.424Z,12.80
2022-09-17T23:26:24.938Z,12.80
2022-09-17T23:28:51.944Z,12.80
2022-09-17T23:31:19.948Z,12.80
2022-09-17T23:33:47.545Z,12.80
2022-09-17T23:36:20.450Z,12.80
2022-09-17T23:38:48.351Z,12.70
2022-09-17T23:41:17.106Z,12.60
2022-09-17T23:43:47.637Z,12.60
2022-09-17T23:46:15.498Z,12.70
2022-09-17T23:48:42.629Z,12.60
2022-09-17T23:51:10.355Z,12.60
2022-09-17T23:53:38.070Z,12.60
2022-09-17T23:56:12.902Z,12.60
2022-09-17T23:58:39.915Z,12.60
